createdAt,value
2019-06-27T00:04:06.892Z,13.23
2019-06-27T00:06:36.379Z,13.07
2019-06-27T00:09:08.411Z,13.13
2019-06-27T00:11:37.895Z,13.87
2019-06-27T00:14:07.238Z,15.07
2019-06-27T00:16:36.511Z,14.07
2019-06-27T00:19:08.060Z,13.53
2019-06-27T00:21:37.252Z,13.47
2019-06-27T00:24:08.418Z,14.30
2019-06-27T00:26:37.702Z,13.73
2019-06-27T00:29:07.039Z,13.67
2019-06-27T00:31:36.443Z,13.80
2019-06-27T00:34:05.807Z,13.60
2019-06-27T00:36:35.327Z,13.77
2019-06-27T00:39:06.075Z,13.33
2019-06-27T00:41:35.426Z,13.57
2019-06-27T00:44:04.724Z,14.03
2019-06-27T00:46:34.116Z,13.80
2019-06-27T00:49:03.443Z,13.80
2019-06-27T00:51:32.740Z,13.40
2019-06-27T00:54:02.057Z,12.37
2019-06-27T00:56:31.370Z,13.40
2019-06-27T00:59:00.623Z,12.97
2019-06-27T01:01:29.843Z,13.77
2019-06-27T01:04:00.571Z,13.90
2019-06-27T01:06:29.843Z,13.67
2019-06-27T01:08:59.155Z,13.60
2019-06-27T01:11:28.543Z,13.60
2019-06-27T01:13:57.862Z,13.33
2019-06-27T01:16:27.606Z,13.00
2019-06-27T01:18:56.927Z,13.40
2019-06-27T01:21:26.278Z,13.63
2019-06-27T01:23:55.604Z,13.90
2019-06-27T01:26:24.875Z,14.23
2019-06-27T01:28:54.243Z,13.83
2019-06-27T01:31:24.337Z,13.23
2019-06-27T01:33:53.942Z,13.67
2019-06-27T01:36:23.254Z,14.03
2019-06-27T01:38:52.525Z,14.60
2019-06-27T01:41:21.856Z,13.93
2019-06-27T01:43:52.474Z,14.73
2019-06-27T01:46:22.022Z,13.73
2019-06-27T01:48:51.663Z,13.60
2019-06-27T01:51:21.836Z,13.73
2019-06-27T01:53:51.155Z,13.77
2019-06-27T01:56:20.479Z,13.20
2019-06-27T01:58:49.767Z,13.30
2019-06-27T02:01:19.124Z,13.30
2019-06-27T02:03:48.437Z,13.50
2019-06-27T02:06:17.803Z,13.90
2019-06-27T02:08:47.084Z,12.93
2019-06-27T02:11:16.385Z,13.73
2019-06-27T02:13:45.681Z,14.00
2019-06-27T02:16:14.982Z,13.47
2019-06-27T02:18:44.323Z,13.37
2019-06-27T02:21:13.626Z,12.97
2019-06-27T02:23:42.943Z,12.93
2019-06-27T02:26:12.354Z,13.30
2019-06-27T02:28:41.627Z,12.80
2019-06-27T02:31:10.983Z,12.33
2019-06-27T02:33:40.716Z,12.67
2019-06-27T02:36:09.996Z,13.53
2019-06-27T02:38:39.265Z,14.10
2019-06-27T02:41:08.656Z,12.43
2019-06-27T02:43:37.949Z,13.30
2019-06-27T02:46:07.223Z,13.37
2019-06-27T02:48:36.501Z,12.83
2019-06-27T02:51:06.400Z,13.93
2019-06-27T02:53:35.692Z,12.73
2019-06-27T02:56:04.998Z,13.33
2019-06-27T02:58:34.431Z,13.27
2019-06-27T03:01:03.850Z,12.83
2019-06-27T03:03:33.199Z,13.83
2019-06-27T03:06:02.626Z,12.63
2019-06-27T03:08:31.936Z,12.73
2019-06-27T03:11:01.352Z,13.10
2019-06-27T03:13:30.650Z,12.50
2019-06-27T03:16:00.008Z,13.63
2019-06-27T03:18:29.379Z,13.47
2019-06-27T03:21:01.648Z,13.40
2019-06-27T03:23:30.994Z,13.50
2019-06-27T03:26:00.268Z,13.73
2019-06-27T03:28:49.788Z,13.27
2019-06-27T03:31:02.364Z,14.73
2019-06-27T03:33:38.165Z,15.77
2019-06-27T03:36:07.586Z,13.30
2019-06-27T03:38:36.950Z,14.33
2019-06-27T03:41:06.552Z,13.63
2019-06-27T03:43:35.840Z,14.90
2019-06-27T03:46:05.108Z,14.70
2019-06-27T03:48:34.410Z,14.20
2019-06-27T03:51:05.950Z,14.40
2019-06-27T03:53:35.283Z,13.70
2019-06-27T03:56:04.560Z,13.90
2019-06-27T03:58:33.923Z,14.90
2019-06-27T04:01:13.503Z,13.77
2019-06-27T04:03:51.018Z,14.33
2019-06-27T04:06:16.230Z,13.77
2019-06-27T04:08:45.535Z,13.10
2019-06-27T04:11:14.950Z,15.13
2019-06-27T04:13:46.260Z,14.40
2019-06-27T04:16:15.491Z,13.90
2019-06-27T04:18:44.859Z,14.03
2019-06-27T04:21:14.147Z,13.83
2019-06-27T04:23:43.760Z,14.57
2019-06-27T04:26:13.045Z,13.50
2019-06-27T04:28:42.342Z,12.73
2019-06-27T04:31:13.032Z,13.90
2019-06-27T04:33:42.312Z,12.93
2019-06-27T04:36:11.551Z,13.33
2019-06-27T04:38:40.821Z,12.70
2019-06-27T04:41:10.160Z,12.70
2019-06-27T04:43:39.549Z,12.90
2019-06-27T04:46:08.931Z,12.40
2019-06-27T04:48:38.310Z,12.20
2019-06-27T04:51:07.658Z,12.40
2019-06-27T04:53:37.137Z,11.63
2019-06-27T04:56:06.508Z,12.73
2019-06-27T04:58:35.820Z,11.27
2019-06-27T05:01:05.189Z,11.03
2019-06-27T05:03:34.434Z,10.47
2019-06-27T05:06:03.761Z,10.27
2019-06-27T05:08:33.116Z,14.27
2019-06-27T05:11:02.568Z,10.93
2019-06-27T05:13:31.911Z,10.00
2019-06-27T05:16:01.192Z,8.57
2019-06-27T05:18:32.471Z,8.90
2019-06-27T05:21:01.822Z,9.80
2019-06-27T05:23:31.091Z,11.37
2019-06-27T05:26:02.832Z,9.13
2019-06-27T05:28:32.057Z,8.60
2019-06-27T05:31:02.515Z,8.40
2019-06-27T05:33:31.947Z,8.23
2019-06-27T05:36:03.010Z,9.07
2019-06-27T05:38:32.322Z,7.70
2019-06-27T05:41:01.509Z,8.40
2019-06-27T05:43:30.934Z,9.93
2019-06-27T05:46:00.212Z,7.70
2019-06-27T05:48:29.467Z,7.83
2019-06-27T05:50:58.807Z,7.97
2019-06-27T05:53:28.116Z,7.87
2019-06-27T05:55:57.670Z,7.50
2019-06-27T05:58:27.045Z,7.20
2019-06-27T06:00:56.252Z,8.20
2019-06-27T06:03:27.627Z,8.63
2019-06-27T06:05:56.983Z,8.10
2019-06-27T06:08:26.281Z,6.87
2019-06-27T06:10:55.679Z,7.77
2019-06-27T06:13:25.002Z,7.53
2019-06-27T06:15:54.334Z,8.30
2019-06-27T06:18:23.621Z,6.20
2019-06-27T06:20:52.914Z,8.03
2019-06-27T06:23:22.227Z,6.13
2019-06-27T06:25:51.454Z,7.23
2019-06-27T06:28:20.743Z,6.53
2019-06-27T06:30:50.036Z,6.83
2019-06-27T06:33:19.381Z,7.42
2019-06-27T06:35:48.716Z,6.13
2019-06-27T06:38:18.212Z,6.28
2019-06-27T06:40:47.633Z,6.13
2019-06-27T06:43:17.039Z,7.75
2019-06-27T06:45:46.339Z,10.75
2019-06-27T06:48:15.709Z,6.97
2019-06-27T06:50:44.979Z,7.03
2019-06-27T06:53:14.312Z,11.20
2019-06-27T06:55:43.613Z,8.33
2019-06-27T06:58:12.922Z,7.67
2019-06-27T07:00:59.950Z,7.47
2019-06-27T07:03:14.309Z,5.08
2019-06-27T07:05:44.391Z,7.58
2019-06-27T07:08:13.790Z,9.48
2019-06-27T07:10:43.152Z,7.00
2019-06-27T07:13:12.487Z,7.35
2019-06-27T07:15:42.172Z,5.30
2019-06-27T07:18:11.422Z,5.00
2019-06-27T07:20:40.740Z,7.60
2019-06-27T07:23:10.039Z,7.95
2019-06-27T07:25:39.226Z,9.30
2019-06-27T07:28:09.775Z,6.30
2019-06-27T07:30:39.007Z,9.63
2019-06-27T07:33:10.363Z,6.53
2019-06-27T07:35:39.335Z,4.95
2019-06-27T07:38:08.723Z,5.65
2019-06-27T07:40:38.077Z,5.50
2019-06-27T07:43:07.338Z,4.62
2019-06-27T07:45:36.652Z,8.30
2019-06-27T07:48:06.288Z,5.45
2019-06-27T07:50:35.532Z,5.78
2019-06-27T07:53:04.925Z,7.30
2019-06-27T07:55:34.230Z,8.50
2019-06-27T07:58:04.352Z,7.05
2019-06-27T08:00:33.583Z,5.83
2019-06-27T08:03:04.942Z,7.37
2019-06-27T08:05:34.221Z,7.75
2019-06-27T08:08:03.729Z,5.47
2019-06-27T08:10:32.978Z,6.25
2019-06-27T08:13:03.238Z,8.20
2019-06-27T08:15:32.422Z,6.15
2019-06-27T08:18:01.701Z,7.03
2019-06-27T08:20:30.985Z,5.50
2019-06-27T08:23:00.296Z,5.90
2019-06-27T08:25:29.628Z,5.83
2019-06-27T08:27:58.989Z,7.37
2019-06-27T08:30:28.330Z,6.90
2019-06-27T08:32:57.675Z,9.15
2019-06-27T08:35:27.003Z,5.65
2019-06-27T08:37:56.199Z,7.92
2019-06-27T08:40:25.618Z,6.30
2019-06-27T08:42:54.822Z,7.22
2019-06-27T08:45:24.181Z,5.75
2019-06-27T08:47:53.561Z,7.80
2019-06-27T08:50:22.812Z,8.68
2019-06-27T08:52:52.124Z,6.08
2019-06-27T08:55:21.393Z,6.03
2019-06-27T08:57:50.765Z,6.40
2019-06-27T09:00:20.154Z,7.75
2019-06-27T09:02:49.418Z,5.25
2019-06-27T09:05:18.673Z,6.97
2019-06-27T09:07:48.030Z,5.17
2019-06-27T09:10:17.392Z,7.60
2019-06-27T09:12:46.754Z,10.80
2019-06-27T09:15:16.108Z,6.00
2019-06-27T09:17:48.223Z,5.12
2019-06-27T09:20:17.768Z,3.80
2019-06-27T09:22:47.006Z,3.50
2019-06-27T09:25:16.545Z,5.42
2019-06-27T09:27:51.223Z,5.60
2019-06-27T09:30:20.571Z,4.33
2019-06-27T09:32:49.821Z,6.03
2019-06-27T09:35:23.035Z,5.65
2019-06-27T09:37:52.388Z,4.33
2019-06-27T09:40:30.346Z,4.20
2019-06-27T09:43:00.419Z,3.87
2019-06-27T09:45:29.811Z,4.55
2019-06-27T09:47:59.090Z,3.20
2019-06-27T09:50:28.500Z,5.65
2019-06-27T09:52:57.901Z,6.10
2019-06-27T09:55:27.170Z,6.65
2019-06-27T09:57:56.915Z,7.03
2019-06-27T10:00:26.678Z,5.53
2019-06-27T10:02:57.201Z,5.62
2019-06-27T10:05:27.786Z,5.87
2019-06-27T10:07:59.079Z,2.67
2019-06-27T10:10:28.422Z,3.55
2019-06-27T10:12:57.701Z,5.05
2019-06-27T10:15:27.085Z,5.53
2019-06-27T10:17:56.426Z,4.90
2019-06-27T10:20:25.974Z,3.98
2019-06-27T10:22:55.314Z,4.72
2019-06-27T10:25:27.378Z,2.85
2019-06-27T10:27:57.686Z,4.45
2019-06-27T10:30:26.949Z,3.52
2019-06-27T10:32:59.846Z,3.08
2019-06-27T10:35:27.331Z,6.30
2019-06-27T10:37:56.631Z,6.47
2019-06-27T10:40:26.095Z,5.95
2019-06-27T10:42:55.424Z,5.22
2019-06-27T10:45:24.866Z,4.58
2019-06-27T10:47:54.217Z,3.90
2019-06-27T10:50:24.614Z,7.37
2019-06-27T10:52:54.180Z,3.12
2019-06-27T10:55:23.519Z,3.80
2019-06-27T10:57:52.809Z,4.53
2019-06-27T11:00:23.523Z,4.67
2019-06-27T11:02:52.852Z,8.90
2019-06-27T11:05:22.125Z,4.47
2019-06-27T11:07:51.446Z,6.25
2019-06-27T11:10:23.841Z,4.12
2019-06-27T11:12:53.198Z,7.25
2019-06-27T11:15:22.974Z,5.20
2019-06-27T11:17:52.294Z,5.92
2019-06-27T11:20:21.830Z,3.60
2019-06-27T11:22:51.166Z,5.30
2019-06-27T11:25:20.566Z,5.10
2019-06-27T11:27:49.886Z,3.58
2019-06-27T11:30:19.289Z,4.05
2019-06-27T11:32:48.763Z,4.80
2019-06-27T11:35:17.989Z,4.47
2019-06-27T11:37:47.340Z,5.83
2019-06-27T11:40:18.013Z,4.90
2019-06-27T11:42:47.358Z,7.05
2019-06-27T11:45:17.879Z,2.50
2019-06-27T11:47:47.225Z,4.28
2019-06-27T11:50:16.525Z,2.17
2019-06-27T11:52:47.277Z,5.45
2019-06-27T11:55:17.278Z,3.05
2019-06-27T11:57:49.601Z,4.45
2019-06-27T12:00:18.969Z,5.53
2019-06-27T12:02:48.293Z,2.00
2019-06-27T12:05:17.690Z,1.32
2019-06-27T12:07:47.135Z,4.28
2019-06-27T12:10:17.200Z,1.72
2019-06-27T12:12:46.610Z,2.30
2019-06-27T12:15:15.981Z,4.65
2019-06-27T12:17:45.294Z,2.50
2019-06-27T12:20:15.887Z,7.53
2019-06-27T12:22:45.242Z,4.30
2019-06-27T12:25:14.775Z,6.10
2019-06-27T12:27:44.092Z,3.90
2019-06-27T12:30:13.736Z,2.02
2019-06-27T12:32:51.917Z,2.95
2019-06-27T12:35:19.934Z,3.27
2019-06-27T12:37:49.476Z,5.33
2019-06-27T12:40:21.356Z,1.80
2019-06-27T12:42:51.049Z,4.72
2019-06-27T12:45:22.276Z,4.40
2019-06-27T12:47:54.418Z,7.30
2019-06-27T12:50:25.371Z,3.67
2019-06-27T12:52:54.747Z,3.17
2019-06-27T12:55:24.038Z,1.85
2019-06-27T12:57:53.520Z,4.28
2019-06-27T13:00:25.550Z,7.83
2019-06-27T13:02:54.938Z,2.72
2019-06-27T13:05:24.272Z,3.02
2019-06-27T13:07:53.560Z,3.52
2019-06-27T13:10:23.767Z,2.10
2019-06-27T13:12:53.093Z,2.98
2019-06-27T13:15:24.078Z,4.05
2019-06-27T13:17:53.386Z,3.77
2019-06-27T13:20:22.585Z,2.87
2019-06-27T13:22:51.871Z,5.55
2019-06-27T13:25:21.331Z,2.40
2019-06-27T13:27:50.941Z,3.05
2019-06-27T13:30:21.807Z,3.05
2019-06-27T13:32:51.772Z,2.35
2019-06-27T13:35:21.266Z,1.50
2019-06-27T13:37:50.546Z,1.70
2019-06-27T13:40:20.103Z,4.97
2019-06-27T13:42:49.346Z,2.72
2019-06-27T13:45:18.711Z,5.85
2019-06-27T13:47:48.150Z,3.65
2019-06-27T13:50:17.449Z,2.42
2019-06-27T13:52:46.743Z,3.17
2019-06-27T13:55:16.172Z,5.67
2019-06-27T13:57:45.431Z,2.20
2019-06-27T14:00:15.775Z,2.73
2019-06-27T14:02:45.679Z,2.00
2019-06-27T14:05:14.982Z,1.17
2019-06-27T14:07:44.312Z,6.30
2019-06-27T14:10:13.676Z,8.60
2019-06-27T14:12:44.870Z,2.90
2019-06-27T14:15:14.403Z,4.75
2019-06-27T14:17:45.812Z,5.10
2019-06-27T14:20:15.584Z,3.27
2019-06-27T14:22:44.980Z,4.07
2019-06-27T14:25:14.314Z,4.72
2019-06-27T14:27:43.629Z,6.73
2019-06-27T14:30:14.492Z,2.77
2019-06-27T14:32:43.890Z,3.52
2019-06-27T14:35:16.031Z,2.73
2019-06-27T14:37:44.162Z,5.73
2019-06-27T14:40:13.737Z,3.70
2019-06-27T14:42:43.491Z,2.80
2019-06-27T14:45:12.958Z,8.60
2019-06-27T14:47:42.150Z,2.90
2019-06-27T14:50:14.663Z,4.33
2019-06-27T14:52:43.915Z,2.20
2019-06-27T14:55:14.212Z,4.30
2019-06-27T14:57:43.538Z,3.07
2019-06-27T15:00:14.811Z,2.37
2019-06-27T15:02:44.454Z,2.93
2019-06-27T15:05:28.060Z,6.17
2019-06-27T15:07:47.630Z,3.23
2019-06-27T15:10:17.312Z,1.17
2019-06-27T15:12:56.337Z,4.28
2019-06-27T15:15:18.094Z,4.05
2019-06-27T15:17:49.765Z,3.73
2019-06-27T15:20:19.887Z,3.37
2019-06-27T15:22:49.267Z,3.67
2019-06-27T15:25:18.507Z,2.60
2019-06-27T15:27:47.934Z,2.93
2019-06-27T15:30:17.262Z,4.73
2019-06-27T15:32:46.586Z,4.37
2019-06-27T15:35:16.674Z,3.43
2019-06-27T15:37:48.769Z,2.30
2019-06-27T15:40:18.013Z,3.37
2019-06-27T15:42:47.385Z,2.47
2019-06-27T15:45:16.966Z,1.27
2019-06-27T15:47:49.027Z,1.30
2019-06-27T15:50:18.360Z,2.73
2019-06-27T15:52:47.954Z,3.60
2019-06-27T15:55:17.300Z,3.13
2019-06-27T15:57:46.717Z,1.77
2019-06-27T16:00:16.163Z,2.63
2019-06-27T16:02:48.325Z,5.67
2019-06-27T16:05:18.103Z,4.77
2019-06-27T16:07:47.731Z,2.10
2019-06-27T16:10:18.663Z,3.93
2019-06-27T16:12:47.991Z,4.60
2019-06-27T16:15:17.279Z,3.80
2019-06-27T16:17:46.562Z,3.63
2019-06-27T16:20:16.529Z,2.30
2019-06-27T16:22:45.860Z,4.70
2019-06-27T16:25:16.625Z,3.13
2019-06-27T16:27:48.118Z,3.97
2019-06-27T16:30:18.109Z,3.40
2019-06-27T16:32:47.410Z,5.13
2019-06-27T16:35:16.679Z,6.93
2019-06-27T16:37:45.931Z,3.93
2019-06-27T16:40:15.196Z,3.40
2019-06-27T16:42:44.404Z,3.20
2019-06-27T16:45:13.738Z,4.13
2019-06-27T16:47:43.875Z,6.20
2019-06-27T16:50:13.465Z,6.83
2019-06-27T16:52:42.710Z,5.30
2019-06-27T16:55:12.010Z,4.57
2019-06-27T16:57:41.372Z,3.63
2019-06-27T17:00:11.224Z,6.73
2019-06-27T17:02:40.708Z,3.27
2019-06-27T17:05:10.454Z,3.83
2019-06-27T17:07:39.944Z,4.13
2019-06-27T17:10:09.524Z,5.93
2019-06-27T17:12:39.031Z,3.43
2019-06-27T17:15:09.052Z,3.80
2019-06-27T17:17:38.483Z,2.03
2019-06-27T17:20:10.626Z,3.73
2019-06-27T17:22:40.170Z,4.47
2019-06-27T17:25:09.968Z,3.30
2019-06-27T17:27:39.532Z,2.70
2019-06-27T17:30:11.873Z,2.93
2019-06-27T17:32:40.796Z,3.83
2019-06-27T17:35:10.077Z,3.70
2019-06-27T17:37:39.384Z,2.87
2019-06-27T17:40:10.265Z,4.47
2019-06-27T17:42:40.066Z,2.50
2019-06-27T17:45:09.906Z,3.50
2019-06-27T17:47:39.260Z,3.40
2019-06-27T17:50:09.128Z,4.50
2019-06-27T17:52:38.541Z,4.23
2019-06-27T17:55:08.524Z,2.57
2019-06-27T17:57:38.483Z,3.10
2019-06-27T18:00:10.190Z,3.70
2019-06-27T18:02:39.939Z,5.37
2019-06-27T18:05:09.578Z,3.33
2019-06-27T18:07:39.062Z,5.30
2019-06-27T18:10:09.180Z,2.73
2019-06-27T18:12:38.955Z,5.17
2019-06-27T18:15:08.741Z,3.53
2019-06-27T18:17:38.131Z,4.83
2019-06-27T18:20:07.973Z,5.93
2019-06-27T18:22:37.489Z,4.83
2019-06-27T18:25:07.027Z,4.67
2019-06-27T18:27:36.448Z,4.77
2019-06-27T18:30:07.844Z,3.50
2019-06-27T18:32:37.327Z,3.20
2019-06-27T18:35:06.874Z,5.87
2019-06-27T18:37:36.299Z,1.63
2019-06-27T18:40:06.363Z,5.73
2019-06-27T18:42:36.011Z,3.67
2019-06-27T18:45:06.297Z,4.83
2019-06-27T18:47:38.694Z,2.93
2019-06-27T18:50:09.480Z,3.77
2019-06-27T18:52:39.020Z,4.90
2019-06-27T18:55:09.443Z,3.13
2019-06-27T18:57:39.724Z,6.50
2019-06-27T19:00:10.168Z,3.27
2019-06-27T19:02:39.509Z,4.37
2019-06-27T19:05:09.461Z,3.53
2019-06-27T19:07:45.512Z,3.60
2019-06-27T19:10:10.829Z,5.20
2019-06-27T19:12:40.796Z,3.67
2019-06-27T19:15:11.646Z,3.40
2019-06-27T19:17:41.136Z,7.87
2019-06-27T19:20:35.853Z,5.70
2019-06-27T19:23:26.035Z,4.23
2019-06-27T19:25:58.297Z,4.97
2019-06-27T19:28:27.717Z,2.57
2019-06-27T19:30:57.243Z,3.87
2019-06-27T19:33:28.785Z,5.33
2019-06-27T19:35:58.207Z,3.93
2019-06-27T19:38:27.556Z,3.47
2019-06-27T19:40:56.977Z,4.97
2019-06-27T19:43:28.236Z,4.30
2019-06-27T19:45:58.002Z,2.20
2019-06-27T19:48:27.384Z,4.97
2019-06-27T19:50:56.956Z,7.93
2019-06-27T19:53:26.358Z,5.07
2019-06-27T19:55:55.939Z,3.87
2019-06-27T19:58:27.342Z,3.90
2019-06-27T20:00:56.671Z,5.30
2019-06-27T20:03:27.428Z,5.57
2019-06-27T20:05:56.844Z,2.63
2019-06-27T20:08:28.519Z,3.50
2019-06-27T20:10:58.075Z,5.33
2019-06-27T20:13:27.844Z,2.10
2019-06-27T20:15:57.715Z,4.03
2019-06-27T20:18:27.315Z,4.43
2019-06-27T20:20:57.126Z,5.83
2019-06-27T20:23:26.677Z,3.83
2019-06-27T20:25:56.427Z,4.07
2019-06-27T20:28:28.236Z,4.20
2019-06-27T20:30:57.818Z,2.93
2019-06-27T20:33:27.620Z,7.47
2019-06-27T20:35:57.112Z,3.10
2019-06-27T20:38:35.023Z,2.17
2019-06-27T20:40:58.216Z,4.10
2019-06-27T20:43:27.580Z,2.80
2019-06-27T20:45:57.178Z,2.20
2019-06-27T20:48:29.309Z,3.93
2019-06-27T20:50:59.077Z,2.27
2019-06-27T20:53:28.805Z,2.43
2019-06-27T20:55:58.610Z,3.57
2019-06-27T20:58:28.280Z,4.40
2019-06-27T21:00:57.789Z,4.67
2019-06-27T21:03:27.924Z,3.53
2019-06-27T21:05:57.879Z,3.17
2019-06-27T21:08:27.267Z,1.53
2019-06-27T21:10:57.268Z,1.70
2019-06-27T21:13:26.834Z,2.43
2019-06-27T21:15:56.588Z,4.80
2019-06-27T21:18:28.197Z,4.00
2019-06-27T21:20:57.585Z,3.13
2019-06-27T21:23:27.191Z,3.63
2019-06-27T21:25:56.859Z,2.00
2019-06-27T21:28:26.416Z,3.43
2019-06-27T21:30:56.328Z,3.40
2019-06-27T21:33:25.861Z,3.00
2019-06-27T21:35:55.280Z,5.13
2019-06-27T21:38:27.543Z,2.37
2019-06-27T21:40:57.330Z,3.50
2019-06-27T21:43:27.243Z,3.80
2019-06-27T21:45:56.759Z,2.07
2019-06-27T21:48:28.830Z,5.30
2019-06-27T21:50:58.854Z,3.80
2019-06-27T21:53:28.453Z,3.50
2019-06-27T21:55:58.355Z,4.43
2019-06-27T21:58:27.689Z,2.83
2019-06-27T22:00:57.680Z,2.10
2019-06-27T22:03:27.023Z,3.17
2019-06-27T22:05:56.474Z,2.30
2019-06-27T22:08:25.929Z,4.00
2019-06-27T22:10:55.311Z,2.90
2019-06-27T22:13:48.220Z,2.23
2019-06-27T22:16:17.570Z,3.77
2019-06-27T22:18:46.846Z,3.27
2019-06-27T22:21:16.037Z,3.00
2019-06-27T22:23:45.345Z,3.67
2019-06-27T22:26:15.703Z,5.10
2019-06-27T22:28:46.834Z,3.30
2019-06-27T22:31:16.118Z,3.97
2019-06-27T22:33:45.427Z,3.40
2019-06-27T22:36:14.746Z,5.03
2019-06-27T22:39:01.557Z,3.90
2019-06-27T22:41:48.270Z,3.53
2019-06-27T22:44:35.080Z,2.60
2019-06-27T22:47:22.355Z,3.63
2019-06-27T22:49:52.336Z,4.40
2019-06-27T22:52:40.669Z,2.97
2019-06-27T22:55:11.990Z,5.60
2019-06-27T22:57:50.151Z,3.50
2019-06-27T23:00:20.398Z,2.20
2019-06-27T23:02:49.778Z,4.40
2019-06-27T23:05:20.248Z,3.33
2019-06-27T23:07:49.489Z,3.57
2019-06-27T23:10:18.805Z,4.70
2019-06-27T23:12:48.094Z,3.70
2019-06-27T23:15:17.475Z,5.23
2019-06-27T23:17:46.726Z,2.60
2019-06-27T23:20:16.085Z,4.23
2019-06-27T23:22:45.370Z,3.87
2019-06-27T23:25:14.575Z,2.33
2019-06-27T23:27:43.863Z,3.73
2019-06-27T23:30:13.195Z,2.50
2019-06-27T23:32:42.479Z,3.47
2019-06-27T23:35:11.937Z,3.10
2019-06-27T23:37:41.317Z,5.07
2019-06-27T23:40:14.542Z,3.27
2019-06-27T23:42:42.009Z,3.63
2019-06-27T23:45:11.213Z,3.90
2019-06-27T23:47:40.449Z,3.40
2019-06-27T23:50:09.946Z,4.60
2019-06-27T23:52:39.225Z,4.47
2019-06-27T23:55:08.510Z,3.80
2019-06-27T23:57:37.761Z,3.97
